Federal Skeena — V7WS5 — position and weather

sailwx.info

Track history (hours):
 
Tides and Currents Weather Stations Pressure Air Temp Water Temp Dewpoint Dewpoint Depression Visibility Wind Speed Wind Dir Waves Ship Positions

Federal Skeena

Last reported at 2018-Mar-06 03:08 UTC. Time now 2018-Apr-24 10:48 UTC.
Position N 27°43' W 015°19'.
Warning: this ship's position is 49 days out of date.

Length 190 m; draft 8.1 m.

Type: Cargo ship. MMSI: 538004381.

Date/timePositionNaut miles runAvg speedWind from/ knotsBaromVisibWave heightAir tempDewpointWater temp
2018-Mar-06 03:08N 27°43' W 015°19'211.8
2018-Mar-06 03:00N 27°44' W 015°18'611.2
2018-Mar-06 02:30N 27°50' W 015°17'611.2
2018-Mar-06 02:00N 27°55' W 015°16'611.2
2018-Mar-06 01:30N 28°01' W 015°17'611.8
2018-Mar-06 01:00N 28°05' W 015°21'3 5.9
2018-Mar-06 00:30N 28°07' W 015°24'0 0.2
2018-Mar-05 23:52N 28°07' W 015°24'0 0.2
2018-Mar-05 23:25N 28°07' W 015°24'0 0.2
2018-Mar-05 22:55N 28°07' W 015°24'0 0.0
2018-Mar-05 22:28N 28°07' W 015°24'0 0.1
2018-Mar-05 21:58N 28°07' W 015°24'0 0.2
2018-Mar-05 21:28N 28°07' W 015°24'0 0.1
2018-Mar-05 20:58N 28°07' W 015°24'0 0.1
2018-Mar-05 20:28N 28°07' W 015°24'0 0.0
2018-Mar-05 19:58N 28°07' W 015°24'0 0.0
2018-Mar-05 19:28N 28°07' W 015°24'0 0.1
2018-Mar-05 18:58N 28°07' W 015°24'0 0.0
2018-Mar-05 18:28N 28°07' W 015°24'0 0.0
2018-Mar-05 17:46N 28°07' W 015°24'0 0.0
2018-Mar-05 17:28N 28°07' W 015°24'0 0.0
2018-Mar-05 16:58N 28°07' W 015°24'0 0.0
2018-Mar-05 16:28N 28°07' W 015°24'0 0.1
2018-Mar-05 15:58N 28°07' W 015°24'0 0.0
2018-Mar-05 15:19N 28°07' W 015°24'0 0.1
2018-Mar-05 14:49N 28°07' W 015°24'0 0.1
2018-Mar-05 14:19N 28°07' W 015°24'0 0.0
2018-Mar-05 13:49N 28°07' W 015°24'0 0.0
2018-Mar-05 13:22N 28°07' W 015°24'0 0.0
2018-Mar-05 12:52N 28°07' W 015°24'0 0.0
2018-Mar-05 12:22N 28°07' W 015°24'0 0.2
2018-Mar-05 11:52N 28°07' W 015°24'0 0.2
2018-Mar-05 11:25N 28°07' W 015°24'0 0.2
2018-Mar-05 11:00N 28°07' W 015°24'1 2.3
2018-Mar-05 10:30N 28°06' W 015°23'2 3.4
2018-Mar-05 10:00N 28°05' W 015°21'0 0.8
2018-Mar-05 09:30N 28°06' W 015°21'1 1.3
2018-Mar-05 08:59N 28°06' W 015°21'1 1.6
2018-Mar-05 08:30N 28°07' W 015°20'1 2.5
2018-Mar-05 08:00N 28°08' W 015°20'3 5.3
2018-Mar-05 07:30N 28°09' W 015°17'3 5.6
2018-Mar-05 07:00N 28°10' W 015°14'5 9.4
2018-Mar-05 06:29N 28°15' W 015°12'4 9.2
2018-Mar-05 06:00N 28°18' W 015°10'4 7.7
2018-Mar-05 05:30N 28°21' W 015°07'510.3
2018-Mar-05 05:00N 28°25' W 015°03'710.1
2018-Mar-05 04:17N 28°30' W 014°57'  
2018-Mar-02 04:57N 35°54' W 005°56'10 3.9
2018-Mar-02 02:23N 35°57' W 005°44'1 3.9
2018-Mar-02 02:00N 35°57' W 005°42'3 5.1
2018-Mar-02 01:30N 35°57' W 005°39'3 5.9
2018-Mar-02 01:01N 35°58' W 005°36'3 6.4
2018-Mar-02 00:30N 35°59' W 005°32'3 7.0
2018-Mar-02 00:00N 35°60' W 005°28'4 7.3
2018-Mar-01 23:30N 36°01' W 005°23'3 6.2
2018-Mar-01 23:00N 36°01' W 005°20'3 6.4
2018-Mar-01 22:30N 36°02' W 005°16'3 6.5
2018-Mar-01 22:00N 36°03' W 005°12'3 6.3
2018-Mar-01 21:28N 36°03' W 005°08'3 6.3
2018-Mar-01 20:59N 36°03' W 005°04'10 0.3
2018-Feb-28 13:48N 36°07' W 005°15'2 6.5
2018-Feb-28 13:30N 36°06' W 005°17'3 6.8
2018-Feb-28 12:59N 36°06' W 005°22'1 2.4
2018-Feb-28 12:28N 36°07' W 005°22'0 0.1
2018-Feb-28 11:58N 36°07' W 005°22'0 0.0
2018-Feb-28 11:28N 36°07' W 005°22'0 0.1
2018-Feb-28 10:58N 36°07' W 005°22'0 0.1
2018-Feb-28 10:25N 36°07' W 005°22'0 0.1
2018-Feb-28 09:58N 36°07' W 005°22'0 0.1
2018-Feb-28 08:49N 36°07' W 005°22'0 0.2
2018-Feb-28 08:22N 36°07' W 005°22'0 0.1
2018-Feb-28 07:49N 36°07' W 005°22'1 3.1
2018-Feb-28 07:30N 36°06' W 005°22'4 7.6
2018-Feb-28 07:00N 36°05' W 005°17'3 5.2
2018-Feb-28 06:27N 36°04' W 005°13'  
Track history (hours):
 
Tides and Currents Weather Stations Pressure Air Temp Water Temp Dewpoint Dewpoint Depression Visibility Wind Speed Wind Dir Waves Ship Positions

Federal Skeena

Last reported at 2018-Mar-06 03:08 UTC. Time now 2018-Apr-24 10:48 UTC.
Position N 27°43' W 015°19'.
Warning: this ship's position is 49 days out of date.

Length 190 m; draft 8.1 m.

Type: Cargo ship. MMSI: 538004381.

Date/timePositionNaut miles runAvg speedWind from/ knotsBaromVisibWave heightAir tempDewpointWater temp
2018-Mar-06 03:08N 27°43' W 015°19'211.8
2018-Mar-06 03:00N 27°44' W 015°18'611.2
2018-Mar-06 02:30N 27°50' W 015°17'611.2
2018-Mar-06 02:00N 27°55' W 015°16'611.2
2018-Mar-06 01:30N 28°01' W 015°17'611.8
2018-Mar-06 01:00N 28°05' W 015°21'3 5.9
2018-Mar-06 00:30N 28°07' W 015°24'0 0.2
2018-Mar-05 23:52N 28°07' W 015°24'0 0.2
2018-Mar-05 23:25N 28°07' W 015°24'0 0.2
2018-Mar-05 22:55N 28°07' W 015°24'0 0.0
2018-Mar-05 22:28N 28°07' W 015°24'0 0.1
2018-Mar-05 21:58N 28°07' W 015°24'0 0.2
2018-Mar-05 21:28N 28°07' W 015°24'0 0.1
2018-Mar-05 20:58N 28°07' W 015°24'0 0.1
2018-Mar-05 20:28N 28°07' W 015°24'0 0.0
2018-Mar-05 19:58N 28°07' W 015°24'0 0.0
2018-Mar-05 19:28N 28°07' W 015°24'0 0.1
2018-Mar-05 18:58N 28°07' W 015°24'0 0.0
2018-Mar-05 18:28N 28°07' W 015°24'0 0.0
2018-Mar-05 17:46N 28°07' W 015°24'0 0.0
2018-Mar-05 17:28N 28°07' W 015°24'0 0.0
2018-Mar-05 16:58N 28°07' W 015°24'0 0.0
2018-Mar-05 16:28N 28°07' W 015°24'0 0.1
2018-Mar-05 15:58N 28°07' W 015°24'0 0.0
2018-Mar-05 15:19N 28°07' W 015°24'0 0.1
2018-Mar-05 14:49N 28°07' W 015°24'0 0.1
2018-Mar-05 14:19N 28°07' W 015°24'0 0.0
2018-Mar-05 13:49N 28°07' W 015°24'0 0.0
2018-Mar-05 13:22N 28°07' W 015°24'0 0.0
2018-Mar-05 12:52N 28°07' W 015°24'0 0.0
2018-Mar-05 12:22N 28°07' W 015°24'0 0.2
2018-Mar-05 11:52N 28°07' W 015°24'0 0.2
2018-Mar-05 11:25N 28°07' W 015°24'0 0.2
2018-Mar-05 11:00N 28°07' W 015°24'1 2.3
2018-Mar-05 10:30N 28°06' W 015°23'2 3.4
2018-Mar-05 10:00N 28°05' W 015°21'0 0.8
2018-Mar-05 09:30N 28°06' W 015°21'1 1.3
2018-Mar-05 08:59N 28°06' W 015°21'1 1.6
2018-Mar-05 08:30N 28°07' W 015°20'1 2.5
2018-Mar-05 08:00N 28°08' W 015°20'3 5.3
2018-Mar-05 07:30N 28°09' W 015°17'3 5.6
2018-Mar-05 07:00N 28°10' W 015°14'5 9.4
2018-Mar-05 06:29N 28°15' W 015°12'4 9.2
2018-Mar-05 06:00N 28°18' W 015°10'4 7.7
2018-Mar-05 05:30N 28°21' W 015°07'510.3
2018-Mar-05 05:00N 28°25' W 015°03'710.1
2018-Mar-05 04:17N 28°30' W 014°57'  
2018-Mar-02 04:57N 35°54' W 005°56'10 3.9
2018-Mar-02 02:23N 35°57' W 005°44'1 3.9
2018-Mar-02 02:00N 35°57' W 005°42'3 5.1
2018-Mar-02 01:30N 35°57' W 005°39'3 5.9
2018-Mar-02 01:01N 35°58' W 005°36'3 6.4
2018-Mar-02 00:30N 35°59' W 005°32'3 7.0
2018-Mar-02 00:00N 35°60' W 005°28'4 7.3
2018-Mar-01 23:30N 36°01' W 005°23'3 6.2
2018-Mar-01 23:00N 36°01' W 005°20'3 6.4
2018-Mar-01 22:30N 36°02' W 005°16'3 6.5
2018-Mar-01 22:00N 36°03' W 005°12'3 6.3
2018-Mar-01 21:28N 36°03' W 005°08'3 6.3
2018-Mar-01 20:59N 36°03' W 005°04'10 0.3
2018-Feb-28 13:48N 36°07' W 005°15'2 6.5
2018-Feb-28 13:30N 36°06' W 005°17'3 6.8
2018-Feb-28 12:59N 36°06' W 005°22'1 2.4
2018-Feb-28 12:28N 36°07' W 005°22'0 0.1
2018-Feb-28 11:58N 36°07' W 005°22'0 0.0
2018-Feb-28 11:28N 36°07' W 005°22'0 0.1
2018-Feb-28 10:58N 36°07' W 005°22'0 0.1
2018-Feb-28 10:25N 36°07' W 005°22'0 0.1
2018-Feb-28 09:58N 36°07' W 005°22'0 0.1
2018-Feb-28 08:49N 36°07' W 005°22'0 0.2
2018-Feb-28 08:22N 36°07' W 005°22'0 0.1
2018-Feb-28 07:49N 36°07' W 005°22'1 3.1
2018-Feb-28 07:30N 36°06' W 005°22'4 7.6
2018-Feb-28 07:00N 36°05' W 005°17'3 5.2
2018-Feb-28 06:27N 36°04' W 005°13'  

Dump ship's entire track history